TimeEST,TemperatureF,Dew PointF,Humidity,Sea Level PressureIn,VisibilityMPH,Wind Direction,Wind SpeedMPH,Gust SpeedMPH,PrecipitationIn,Events,Conditions,WindDirDegrees,DateUTC
12:53 AM,19.9,14.0,78,30.19,10.0,SSW,6.9,-,N/A,,Overcast,210,2014-01-11 05:53:00
1:53 AM,19.9,15.1,81,30.20,10.0,SSW,4.6,-,N/A,,Overcast,200,2014-01-11 06:53:00
2:53 AM,19.9,16.0,85,30.18,10.0,South,4.6,-,N/A,,Overcast,180,2014-01-11 07:53:00
3:53 AM,21.0,17.1,85,30.17,10.0,South,3.5,-,N/A,,Overcast,190,2014-01-11 08:53:00
4:53 AM,19.9,16.0,85,30.13,10.0,SE,5.8,-,N/A,,Overcast,130,2014-01-11 09:53:00
5:53 AM,19.9,16.0,85,30.12,10.0,SE,9.2,-,N/A,,Overcast,140,2014-01-11 10:53:00
6:19 AM,19.0,14.0,81,30.05,10.0,SSE,9.2,-,N/A,,Scattered Clouds,150,2014-01-11 11:19:00
6:53 AM,17.1,12.9,84,30.08,10.0,SE,8.1,-,N/A,,Clear,140,2014-01-11 11:53:00
7:53 AM,16.0,10.9,81,30.06,10.0,SE,8.1,-,N/A,,Clear,130,2014-01-11 12:53:00
8:53 AM,16.0,10.9,81,30.01,10.0,SE,10.4,-,N/A,,Overcast,140,2014-01-11 13:53:00
9:53 AM,16.0,12.0,84,29.97,3.0,SE,12.7,-,0.00,Snow,Light Snow,140,2014-01-11 14:53:00
10:10 AM,18.0,14.0,84,29.89,4.0,SE,13.8,-,0.01,,Overcast,130,2014-01-11 15:10:00
10:19 AM,18.0,15.1,88,29.88,4.0,SE,12.7,-,0.02,,Overcast,140,2014-01-11 15:19:00
10:24 AM,18.0,15.1,88,29.87,2.5,SE,12.7,-,0.02,,Overcast,140,2014-01-11 15:24:00
10:39 AM,18.0,16.0,92,29.84,1.5,SE,12.7,-,0.04,,Overcast,140,2014-01-11 15:39:00
10:47 AM,19.4,17.6,93,29.83,1.0,SE,11.5,-,0.04,Rain,Light Freezing Rain,140,2014-01-11 15:47:00
10:48 AM,19.0,17.1,92,29.88,1.0,SE,11.5,-,0.04,Rain,Light Freezing Rain,140,2014-01-11 15:48:00
11:08 AM,19.9,19.0,96,29.81,1.2,SE,13.8,-,0.01,,Overcast,140,2014-01-11 16:08:00
11:26 AM,21.9,19.9,92,29.77,1.2,SE,13.8,-,0.03,,Overcast,140,2014-01-11 16:26:00
11:32 AM,21.9,21.0,96,29.76,1.5,SE,13.8,-,0.04,Rain,Light Freezing Rain,140,2014-01-11 16:32:00
11:34 AM,21.9,21.0,96,29.76,1.2,SE,12.7,-,0.04,Rain,Light Freezing Rain,140,2014-01-11 16:34:00
11:43 AM,23.0,21.9,96,29.74,1.2,SE,16.1,-,0.06,Rain,Light Freezing Rain,140,2014-01-11 16:43:00
11:53 AM,24.1,23.0,96,29.77,1.2,SE,12.7,-,0.07,Rain,Light Freezing Rain,140,2014-01-11 16:53:00
12:00 PM,25.0,23.0,92,29.71,1.0,SE,15.0,-,0.02,Rain,Light Freezing Rain,140,2014-01-11 17:00:00
12:17 PM,26.1,25.0,96,29.68,1.0,SE,12.7,-,0.04,Rain,Light Freezing Rain,140,2014-01-11 17:17:00
12:24 PM,26.1,25.0,96,29.67,1.8,SE,16.1,-,0.05,Rain,Light Freezing Rain,140,2014-01-11 17:24:00
12:28 PM,26.1,25.0,96,29.67,3.0,SE,15.0,-,0.05,Rain,Light Freezing Rain,140,2014-01-11 17:28:00
12:53 PM,27.0,26.1,96,29.68,4.0,SE,13.8,-,0.05,Rain,Light Freezing Rain,140,2014-01-11 17:53:00
1:04 PM,27.0,27.0,100,29.62,2.5,SE,15.0,-,0.01,Rain,Light Freezing Rain,140,2014-01-11 18:04:00
1:12 PM,28.0,27.0,96,29.61,1.5,SE,11.5,-,0.02,Rain,Light Freezing Rain,140,2014-01-11 18:12:00
1:17 PM,28.0,28.0,100,29.60,1.2,SE,13.8,-,0.03,Rain,Light Freezing Rain,140,2014-01-11 18:17:00
1:24 PM,28.9,28.0,96,29.59,1.5,SE,13.8,-,0.04,Rain,Light Freezing Rain,140,2014-01-11 18:24:00
1:33 PM,28.9,28.9,100,29.58,1.8,SSE,15.0,-,0.05,Rain,Light Freezing Rain,150,2014-01-11 18:33:00
1:38 PM,28.9,28.9,100,29.58,1.2,SSE,13.8,-,0.06,Rain,Light Freezing Rain,150,2014-01-11 18:38:00
1:51 PM,30.0,28.9,96,29.60,0.8,SSE,15.0,-,0.06,,Mist,150,2014-01-11 18:51:00
1:54 PM,30.0,28.9,96,29.56,1.0,SSE,13.8,-,0.00,Rain,Light Freezing Rain,150,2014-01-11 18:54:00
1:58 PM,30.0,28.9,96,29.56,1.8,SSE,15.0,-,0.00,Rain,Light Freezing Rain,150,2014-01-11 18:58:00
2:00 PM,30.0,28.9,96,29.56,3.0,SSE,13.8,-,0.00,Rain,Light Freezing Rain,150,2014-01-11 19:00:00
2:13 PM,30.0,28.9,96,29.54,1.5,SE,12.7,-,0.00,,Overcast,140,2014-01-11 19:13:00
2:15 PM,30.0,28.9,96,29.54,0.8,SSE,12.7,-,0.00,,Overcast,150,2014-01-11 19:15:00
2:41 PM,30.0,30.0,100,29.52,0.2,SE,12.7,-,0.00,Fog-Rain,Light Freezing Rain,140,2014-01-11 19:41:00
2:53 PM,30.0,30.0,100,29.54,0.2,SE,12.7,-,0.00,Fog-Rain,Light Freezing Rain,140,2014-01-11 19:53:00
3:08 PM,30.9,30.0,96,29.48,0.2,SE,13.8,-,0.00,Fog-Snow,Light Snow,140,2014-01-11 20:08:00
3:53 PM,32.0,30.9,96,29.49,0.5,SSE,12.7,-,0.02,Fog,Fog,160,2014-01-11 20:53:00
4:53 PM,33.1,32.0,96,29.44,0.8,SSE,12.7,-,0.09,Rain,Light Rain,160,2014-01-11 21:53:00
5:53 PM,33.1,33.1,100,29.37,0.2,SSE,15.0,-,0.08,Fog-Rain,Rain,150,2014-01-11 22:53:00
6:53 PM,35.1,35.1,100,29.33,0.5,South,6.9,-,0.10,Fog-Rain,Light Rain,180,2014-01-11 23:53:00
7:35 PM,36.0,36.0,100,29.26,1.0,South,8.1,-,0.05,Rain,Light Rain,170,2014-01-12 00:35:00
7:46 PM,37.0,36.0,96,29.25,0.5,South,6.9,-,0.06,Fog-Rain,Light Rain,180,2014-01-12 00:46:00
7:53 PM,37.0,36.0,96,29.27,0.5,South,6.9,-,0.06,Fog-Rain,Light Rain,180,2014-01-12 00:53:00
8:53 PM,35.1,35.1,100,29.19,0.2,SE,8.1,-,0.00,Fog-Rain,Light Rain,130,2014-01-12 01:53:00
9:53 PM,39.0,39.0,100,29.14,0.2,SSE,10.4,-,0.00,Fog-Rain,Light Rain,150,2014-01-12 02:53:00
10:53 PM,41.0,41.0,100,29.09,0.2,SSE,10.4,-,0.00,Fog,Fog,160,2014-01-12 03:53:00
11:53 PM,41.0,41.0,100,29.03,0.2,SSE,11.5,-,N/A,Fog,Fog,150,2014-01-12 04:53:00